Time;durP1;ratioP1;P1;durP2;ratioP2;P2;SDS_P1;SDS_P2;PMS_P1;PMS_P2;Temp;Humidity;BMP_temperature;BMP_pressure;BME280_temperature;BME280_humidity;BME280_pressure;Samples;Min_cycle;Max_cycle;Signal;HPM_P1;HPM_P2
2021/01/03 00:01:47;;;;;;;15.73;10.90;;;;;;;1.95;66.99;95871.06;5072763;28;20431;-68
2021/01/03 00:04:14;;;;;;;17.30;11.30;;;;;;;1.84;67.18;95866.00;5071274;28;20802;-69
2021/01/03 00:06:40;;;;;;;18.00;10.90;;;;;;;1.97;67.31;95858.84;5065295;28;20458;-69
2021/01/03 00:09:08;;;;;;;18.73;10.80;;;;;;;1.85;67.39;95867.66;5069492;28;20784;-68
2021/01/03 00:11:36;;;;;;;18.90;11.50;;;;;;;2.03;66.77;95861.84;5071913;28;20424;-68
2021/01/03 00:14:02;;;;;;;16.80;10.60;;;;;;;1.86;66.94;95864.13;5071946;28;20474;-67
2021/01/03 00:16:28;;;;;;;15.47;9.93;;;;;;;2.19;66.20;95859.56;5072880;28;20424;-68
2021/01/03 00:18:53;;;;;;;18.20;11.03;;;;;;;2.49;65.24;95859.63;5057898;28;20433;-69
2021/01/03 00:21:20;;;;;;;15.83;9.73;;;;;;;2.14;65.93;95856.59;5075426;28;20185;-68
2021/01/03 00:23:45;;;;;;;15.80;10.50;;;;;;;1.76;66.63;95858.91;5071676;28;20198;-68
2021/01/03 00:26:11;;;;;;;15.30;10.50;;;;;;;2.02;66.20;95860.22;5071716;28;20803;-68
2021/01/03 00:28:37;;;;;;;14.90;9.50;;;;;;;2.33;65.43;95850.63;5054841;28;20930;-67
2021/01/03 00:31:03;;;;;;;13.40;9.40;;;;;;;2.06;65.75;95859.84;5072607;28;20625;-67
2021/01/03 00:33:28;;;;;;;13.40;9.93;;;;;;;2.23;65.14;95857.53;5070743;28;20241;-69
2021/01/03 00:35:54;;;;;;;14.93;9.90;;;;;;;2.36;64.68;95859.88;5072063;28;20287;-66
2021/01/03 00:38:20;;;;;;;16.03;10.07;;;;;;;2.30;65.16;95859.47;5072167;28;20187;-67
2021/01/03 00:40:46;;;;;;;14.53;9.57;;;;;;;2.32;64.92;95863.69;5070075;28;20552;-68
2021/01/03 00:43:12;;;;;;;15.80;9.97;;;;;;;2.04;65.72;95863.47;5069747;28;20202;-69
2021/01/03 00:45:39;;;;;;;13.93;9.53;;;;;;;2.07;65.37;95871.81;5070933;28;20197;-67
2021/01/03 00:48:06;;;;;;;15.00;10.40;;;;;;;2.14;64.99;95867.72;5066983;28;20421;-68
2021/01/03 00:50:32;;;;;;;14.20;9.43;;;;;;;1.87;65.91;95864.91;5061700;28;20518;-67
2021/01/03 00:52:58;;;;;;;14.20;9.97;;;;;;;2.03;65.30;95860.09;5071485;28;20436;-69
2021/01/03 00:55:24;;;;;;;14.37;9.93;;;;;;;1.70;66.16;95869.78;5071910;28;20996;-69
2021/01/03 00:57:51;;;;;;;17.03;10.50;;;;;;;2.32;65.17;95853.34;5070485;28;20182;-68
2021/01/03 01:00:19;;;;;;;14.80;10.20;;;;;;;2.10;65.15;95855.22;5071440;28;20841;-66
2021/01/03 01:02:45;;;;;;;15.87;9.90;;;;;;;1.94;66.20;95860.88;5069026;28;20456;-68
2021/01/03 01:05:12;;;;;;;16.90;10.50;;;;;;;2.15;65.34;95860.78;5071646;28;20957;-66
2021/01/03 01:07:37;;;;;;;16.80;10.57;;;;;;;1.68;66.45;95854.38;5067367;28;20847;-68
2021/01/03 01:10:06;;;;;;;16.87;10.60;;;;;;;2.11;65.44;95867.19;5071000;28;20494;-67
2021/01/03 01:12:34;;;;;;;15.03;9.90;;;;;;;1.73;66.82;95868.69;5070161;28;20190;-65
2021/01/03 01:15:04;;;;;;;15.17;10.43;;;;;;;1.93;66.22;95864.41;5071806;28;20440;-67
2021/01/03 01:17:29;;;;;;;15.73;10.30;;;;;;;1.89;66.18;95863.03;5071897;28;20431;-66
2021/01/03 01:19:55;;;;;;;14.80;10.37;;;;;;;1.79;66.83;95858.66;5055738;28;20426;-69
2021/01/03 01:22:21;;;;;;;15.80;9.90;;;;;;;1.82;66.31;95857.56;5063275;28;20193;-68
2021/01/03 01:24:46;;;;;;;15.07;10.17;;;;;;;1.74;66.65;95860.00;5071613;28;20206;-67
2021/01/03 01:27:12;;;;;;;15.40;10.27;;;;;;;1.93;66.33;95867.81;5072945;28;20181;-69
2021/01/03 01:29:38;;;;;;;15.40;10.00;;;;;;;2.22;65.32;95864.47;5073145;28;20256;-66
2021/01/03 01:32:04;;;;;;;17.70;11.00;;;;;;;1.77;66.51;95863.13;5071612;28;20240;-68
2021/01/03 01:34:30;;;;;;;16.50;10.30;;;;;;;2.31;65.01;95862.88;5071875;28;20206;-68
2021/01/03 01:36:55;;;;;;;16.53;10.97;;;;;;;2.27;64.59;95864.88;5071966;28;20916;-68
2021/01/03 01:39:21;;;;;;;15.57;10.47;;;;;;;2.52;64.38;95865.31;5069561;28;20174;-67
2021/01/03 01:41:47;;;;;;;14.07;10.13;;;;;;;2.26;64.56;95860.69;5068256;28;20603;-67
2021/01/03 01:44:13;;;;;;;14.20;9.90;;;;;;;2.75;63.95;95865.09;5071545;28;20206;-68
2021/01/03 01:46:51;;;;;;;12.60;9.97;;;;;;;2.32;64.41;95871.44;5065657;28;20182;-68
2021/01/03 01:49:17;;;;;;;13.73;9.90;;;;;;;2.31;64.82;95868.03;5056293;28;20205;-66
2021/01/03 01:51:47;;;;;;;14.00;9.33;;;;;;;2.36;64.11;95862.47;5070522;28;20779;-68
2021/01/03 01:54:15;;;;;;;16.13;10.30;;;;;;;2.08;65.25;95872.59;5070284;28;20194;-67
2021/01/03 01:56:50;;;;;;;18.00;10.83;;;;;;;2.12;65.67;95874.00;5071108;28;20806;-70
2021/01/03 01:59:34;;;;;;;15.63;10.60;;;;;;;2.16;65.58;95870.16;5070018;28;20879;-69
2021/01/03 02:02:29;;;;;;;17.83;12.20;;;;;;;1.95;65.69;95863.31;5053477;28;20434;-68
2021/01/03 02:04:55;;;;;;;17.03;11.27;;;;;;;1.85;66.50;95867.66;5060783;28;20541;-67
2021/01/03 02:07:33;;;;;;;15.40;11.50;;;;;;;1.76;66.86;95866.66;5070936;28;20452;-67
2021/01/03 02:10:08;;;;;;;17.63;12.10;;;;;;;1.49;67.76;95864.66;5069359;28;20218;-67
2021/01/03 02:12:38;;;;;;;18.23;11.50;;;;;;;1.98;66.82;95868.25;5071721;28;20417;-68
2021/01/03 02:15:08;;;;;;;18.83;11.43;;;;;;;1.81;67.24;95866.25;5068966;28;20455;-68
2021/01/03 02:17:34;;;;;;;15.97;11.23;;;;;;;1.84;67.28;95860.84;5053093;28;20420;-67
2021/01/03 02:20:00;;;;;;;16.80;12.30;;;;;;;1.95;67.50;95873.66;5056738;28;21019;-67
2021/01/03 02:22:55;;;;;;;21.57;12.20;;;;;;;1.97;67.29;95871.78;5071898;28;20220;-68
2021/01/03 02:25:21;;;;;;;20.17;12.40;;;;;;;1.88;68.01;95877.72;5050020;28;20426;-69
2021/01/03 02:28:09;;;;;;;18.37;12.60;;;;;;;2.22;67.02;95861.91;5049040;28;20525;-66
2021/01/03 02:30:36;;;;;;;20.90;13.20;;;;;;;2.07;67.37;95869.22;5041003;28;20527;-67
2021/01/03 02:33:28;;;;;;;18.63;12.00;;;;;;;2.29;66.45;95865.56;5047208;28;20534;-66
2021/01/03 02:35:58;;;;;;;18.97;12.60;;;;;;;2.17;66.71;95863.25;5048577;28;20429;-66
2021/01/03 02:38:27;;;;;;;21.03;13.60;;;;;;;2.23;67.46;95866.13;5047182;28;20539;-67
2021/01/03 02:40:53;;;;;;;21.40;12.37;;;;;;;2.06;67.76;95869.34;5046717;28;20458;-67
2021/01/03 02:43:19;;;;;;;18.70;12.00;;;;;;;2.02;67.70;95870.56;5050587;28;20449;-67
2021/01/03 02:45:45;;;;;;;16.73;12.23;;;;;;;1.82;67.92;95868.75;5035839;28;20437;-67
2021/01/03 02:48:21;;;;;;;19.53;12.93;;;;;;;2.01;68.50;95866.34;5029850;28;20223;-67
2021/01/03 02:50:46;;;;;;;18.43;12.47;;;;;;;2.21;67.30;95875.78;5045467;28;20963;-67
2021/01/03 02:53:12;;;;;;;19.33;12.60;;;;;;;1.99;68.57;95875.03;5035756;28;20506;-68
2021/01/03 02:55:38;;;;;;;17.57;12.10;;;;;;;1.89;68.91;95860.44;5057605;28;20199;-69
2021/01/03 02:58:04;;;;;;;23.57;14.57;;;;;;;2.15;68.57;95864.19;5036401;28;20928;-68
2021/01/03 03:00:33;;;;;;;19.93;12.77;;;;;;;2.00;69.01;95862.94;5052388;28;20342;-67
2021/01/03 03:03:00;;;;;;;20.00;13.50;;;;;;;1.91;69.06;95861.94;5074332;28;20425;-68
2021/01/03 03:05:26;;;;;;;21.20;14.27;;;;;;;1.67;69.63;95867.44;5073322;28;20941;-66
2021/01/03 03:07:52;;;;;;;22.93;15.00;;;;;;;1.65;70.14;95866.75;5069490;28;20520;-68
2021/01/03 03:10:19;;;;;;;21.03;13.20;;;;;;;1.89;69.54;95863.03;5073144;28;20555;-67
2021/01/03 03:12:49;;;;;;;19.83;13.57;;;;;;;1.92;69.61;95862.78;5074386;28;20489;-65
2021/01/03 03:15:17;;;;;;;23.10;14.97;;;;;;;1.25;71.79;95860.59;5074362;28;20448;-69
2021/01/03 03:17:42;;;;;;;21.30;14.93;;;;;;;1.17;72.11;95853.47;5073713;28;20435;-67
2021/01/03 03:20:10;;;;;;;24.07;15.37;;;;;;;0.91;73.27;95853.03;5059969;28;20786;-67
2021/01/03 03:22:35;;;;;;;21.10;15.20;;;;;;;1.32;72.49;95851.38;5067403;28;20183;-68
2021/01/03 03:25:02;;;;;;;22.47;15.20;;;;;;;0.81;73.82;95849.56;5065533;28;20456;-66
2021/01/03 03:27:27;;;;;;;22.53;15.10;;;;;;;1.11;73.12;95848.00;5073305;28;20179;-68
2021/01/03 03:29:53;;;;;;;26.07;16.70;;;;;;;1.23;72.72;95852.16;5073301;28;20460;-67
2021/01/03 03:32:19;;;;;;;25.53;17.03;;;;;;;1.15;73.06;95845.03;5072953;28;20210;-66
2021/01/03 03:34:44;;;;;;;24.47;15.80;;;;;;;0.97;73.21;95843.97;5072367;28;20293;-65
2021/01/03 03:37:10;;;;;;;23.70;15.53;;;;;;;1.49;71.89;95849.16;5074002;28;20179;-68
2021/01/03 03:39:36;;;;;;;29.30;15.97;;;;;;;1.33;71.86;95844.44;5070647;28;20264;-66
2021/01/03 03:42:02;;;;;;;24.03;15.73;;;;;;;1.48;71.36;95847.53;5072597;28;20182;-66
2021/01/03 03:44:29;;;;;;;21.17;14.97;;;;;;;1.56;71.46;95849.47;5074154;28;20305;-67
2021/01/03 03:46:57;;;;;;;21.60;15.10;;;;;;;1.42;72.08;95835.94;5056168;28;20209;-68
2021/01/03 03:49:23;;;;;;;22.83;14.80;;;;;;;1.52;71.46;95841.13;5057699;28;20467;-67
2021/01/03 03:51:56;;;;;;;23.83;15.20;;;;;;;1.59;71.65;95841.44;5071691;28;20911;-68
2021/01/03 03:54:23;;;;;;;23.43;15.40;;;;;;;1.45;71.94;95829.69;5054478;28;20483;-66
2021/01/03 03:56:50;;;;;;;21.40;14.40;;;;;;;1.22;72.42;95840.19;5072042;28;20520;-68
2021/01/03 03:59:16;;;;;;;23.87;14.97;;;;;;;1.48;72.09;95832.03;5064987;28;20456;-67
2021/01/03 04:01:42;;;;;;;24.23;15.73;;;;;;;1.25;72.83;95823.63;5064864;28;20801;-66
2021/01/03 04:04:08;;;;;;;21.83;15.57;;;;;;;1.10;73.35;95831.69;5072746;28;20519;-67
2021/01/03 04:06:34;;;;;;;24.30;15.10;;;;;;;1.47;72.50;95828.59;5072526;28;20694;-69
2021/01/03 04:08:59;;;;;;;27.70;16.60;;;;;;;1.46;71.74;95833.91;5068585;28;20676;-66
2021/01/03 04:11:25;;;;;;;20.30;13.50;;;;;;;1.41;72.57;95833.47;5055041;28;20186;-65
2021/01/03 04:13:51;;;;;;;22.93;13.93;;;;;;;1.59;71.90;95828.50;5072472;28;20206;-68
2021/01/03 04:16:16;;;;;;;25.00;15.33;;;;;;;1.48;71.79;95829.44;5071880;28;20285;-68
2021/01/03 04:18:42;;;;;;;24.47;15.07;;;;;;;1.69;71.71;95832.78;5058579;28;20191;-67
2021/01/03 04:21:11;;;;;;;23.80;14.60;;;;;;;1.89;70.89;95830.25;5037752;28;20182;-67
2021/01/03 04:23:36;;;;;;;26.37;15.30;;;;;;;2.04;70.50;95820.38;5072250;28;20892;-65
2021/01/03 04:26:02;;;;;;;23.10;15.87;;;;;;;1.40;72.22;95829.25;5071675;28;20511;-67
2021/01/03 04:28:28;;;;;;;21.60;13.93;;;;;;;1.38;72.22;95826.81;5065976;28;20514;-67
2021/01/03 04:30:54;;;;;;;22.57;15.57;;;;;;;1.10;73.03;95828.31;5052560;28;20220;-66
2021/01/03 04:33:19;;;;;;;22.33;15.30;;;;;;;1.40;73.27;95827.50;5063334;28;20202;-68
2021/01/03 04:35:48;;;;;;;22.43;14.80;;;;;;;1.52;72.14;95835.97;5072019;28;20428;-67
2021/01/03 04:38:14;;;;;;;22.77;14.20;;;;;;;1.80;72.16;95834.47;5056109;28;20189;-67
2021/01/03 04:40:40;;;;;;;20.77;14.80;;;;;;;1.56;72.25;95832.19;5049485;28;20409;-68
2021/01/03 04:43:06;;;;;;;26.67;16.37;;;;;;;1.31;73.43;95841.19;5058185;28;20456;-69
2021/01/03 04:45:37;;;;;;;25.07;15.80;;;;;;;1.18;73.92;95844.78;5050645;28;20222;-69
2021/01/03 04:48:24;;;;;;;26.17;16.30;;;;;;;1.18;74.11;95849.94;5051081;28;20419;-66
2021/01/03 04:50:50;;;;;;;24.83;16.23;;;;;;;1.14;73.83;95842.56;5050702;28;20457;-68
2021/01/03 04:53:34;;;;;;;26.47;17.13;;;;;;;1.17;73.79;95844.91;5050469;28;20437;-67
2021/01/03 04:56:13;;;;;;;24.00;16.23;;;;;;;0.95;74.43;95853.59;5054545;28;20199;-67
2021/01/03 04:59:13;;;;;;;26.30;16.93;;;;;;;1.06;74.36;95841.44;5056272;28;20453;-67
2021/01/03 05:01:38;;;;;;;27.40;16.77;;;;;;;1.40;73.86;95843.00;5047692;28;20425;-67
2021/01/03 05:04:32;;;;;;;27.27;15.47;;;;;;;1.44;73.08;95844.38;5058785;28;20503;-69
2021/01/03 05:07:06;;;;;;;26.37;17.13;;;;;;;0.86;74.97;95843.06;5051364;28;20253;-69
2021/01/03 05:09:32;;;;;;;28.80;17.50;;;;;;;0.70;75.58;95851.25;5032381;28;20479;-68
2021/01/03 05:12:26;;;;;;;25.93;16.47;;;;;;;1.02;74.30;95847.78;5050549;28;20826;-66
2021/01/03 05:15:29;;;;;;;28.77;16.50;;;;;;;1.12;74.53;95852.22;5050507;28;20261;-67
2021/01/03 05:17:55;;;;;;;27.27;16.50;;;;;;;1.04;74.85;95852.84;5058768;28;20485;-67
2021/01/03 05:20:21;;;;;;;28.77;16.93;;;;;;;1.15;74.89;95859.69;5052026;28;20500;-67
2021/01/03 05:22:46;;;;;;;28.53;16.77;;;;;;;1.34;74.12;95861.56;5051303;28;20750;-67
2021/01/03 05:25:14;;;;;;;28.30;18.07;;;;;;;1.43;73.82;95855.66;5050470;28;20182;-68
2021/01/03 05:27:40;;;;;;;28.13;18.40;;;;;;;1.21;74.46;95848.88;5052064;28;20328;-66
2021/01/03 05:30:21;;;;;;;26.73;16.40;;;;;;;1.14;74.03;95850.31;5048844;28;20544;-70
2021/01/03 05:32:47;;;;;;;27.30;16.60;;;;;;;1.10;74.83;95852.31;5051982;28;20189;-65
2021/01/03 05:35:40;;;;;;;31.10;17.40;;;;;;;0.82;75.37;95849.41;5063717;28;20429;-67
2021/01/03 05:38:07;;;;;;;27.67;18.10;;;;;;;0.91;75.48;95847.84;5049989;28;20433;-68
2021/01/03 05:40:36;;;;;;;27.27;17.17;;;;;;;0.90;75.34;95851.38;5055419;28;20424;-67
2021/01/03 05:43:17;;;;;;;26.43;17.67;;;;;;;0.98;75.69;95849.00;5051212;28;20418;-66
2021/01/03 05:46:07;;;;;;;24.63;16.67;;;;;;;1.06;75.15;95856.94;5050652;28;20505;-68
2021/01/03 05:48:46;;;;;;;29.10;17.70;;;;;;;0.82;75.54;95846.84;5042247;28;20429;-68
2021/01/03 05:51:31;;;;;;;33.13;18.70;;;;;;;1.02;74.76;95854.72;5041788;28;20426;-67
2021/01/03 05:54:19;;;;;;;30.20;18.60;;;;;;;1.09;74.95;95855.03;5050819;28;20445;-69
2021/01/03 05:56:45;;;;;;;29.43;18.00;;;;;;;1.27;74.63;95850.94;5049887;28;20433;-67
2021/01/03 05:59:30;;;;;;;31.43;18.13;;;;;;;0.85;75.15;95850.97;5037388;28;20503;-67
2021/01/03 06:02:11;;;;;;;30.20;18.73;;;;;;;0.90;75.87;95852.22;5051604;28;20430;-68
2021/01/03 06:04:38;;;;;;;27.67;17.17;;;;;;;0.87;75.94;95854.22;5049002;28;20819;-68
2021/01/03 06:07:26;;;;;;;30.57;18.40;;;;;;;0.77;76.50;95849.81;5058711;28;20444;-67
2021/01/03 06:09:52;;;;;;;30.83;18.20;;;;;;;0.89;75.89;95855.72;5053879;28;20460;-67
2021/01/03 06:12:26;;;;;;;27.77;17.63;;;;;;;1.13;75.23;95849.50;5051019;28;20468;-66
2021/01/03 06:15:03;;;;;;;29.47;18.67;;;;;;;1.04;75.04;95848.50;5049350;28;20618;-66
2021/01/03 06:17:36;;;;;;;33.77;18.90;;;;;;;1.09;75.07;95861.00;5052142;28;20433;-67
2021/01/03 06:20:07;;;;;;;32.30;18.90;;;;;;;1.35;74.75;95860.63;5055014;28;20532;-66
2021/01/03 06:22:39;;;;;;;34.50;20.20;;;;;;;1.23;74.69;95862.47;5062879;28;20436;-67
2021/01/03 06:25:28;;;;;;;31.30;19.00;;;;;;;1.02;75.44;95860.69;5050739;28;20816;-68
2021/01/03 06:27:58;;;;;;;34.20;19.87;;;;;;;0.86;76.01;95855.97;5050966;28;20857;-67
2021/01/03 06:30:24;;;;;;;35.37;20.07;;;;;;;1.15;75.30;95854.53;5053467;28;20551;-67
2021/01/03 06:33:12;;;;;;;35.40;20.10;;;;;;;1.56;74.24;95855.44;5053038;28;20513;-68
2021/01/03 06:35:47;;;;;;;35.47;20.90;;;;;;;1.35;74.19;95855.47;5061005;28;20226;-69
2021/01/03 06:38:22;;;;;;;34.90;20.00;;;;;;;1.10;75.30;95851.53;5041573;28;20843;-68
2021/01/03 06:41:06;;;;;;;33.23;19.40;;;;;;;1.13;75.03;95853.84;5054832;28;20431;-69
2021/01/03 06:44:00;;;;;;;37.63;21.40;;;;;;;1.17;74.88;95852.63;5052938;28;20579;-65
2021/01/03 06:47:20;;;;;;;35.10;21.17;;;;;;;1.24;74.83;95858.94;5048427;28;20451;-67
2021/01/03 06:49:52;;;;;;;35.63;20.53;;;;;;;1.09;74.98;95855.03;5049617;28;20525;-67
2021/01/03 06:52:32;;;;;;;34.40;19.77;;;;;;;1.38;74.58;95860.38;5068954;28;20463;-66
2021/01/03 06:55:31;;;;;;;35.47;19.43;;;;;;;1.11;75.04;95864.28;5072936;28;20454;-67
2021/01/03 06:58:18;;;;;;;35.13;20.03;;;;;;;1.13;74.39;95865.00;5074144;28;20424;-67
2021/01/03 07:00:52;;;;;;;37.23;19.60;;;;;;;1.45;73.84;95865.84;5072864;28;20442;-67
2021/01/03 07:03:25;;;;;;;37.00;20.63;;;;;;;1.29;74.19;95872.28;5072831;28;20497;-67
2021/01/03 07:06:00;;;;;;;36.30;20.40;;;;;;;1.12;74.52;95871.09;5072765;28;20421;-66
2021/01/03 07:08:29;;;;;;;33.63;19.93;;;;;;;1.15;74.63;95870.00;5070370;28;20789;-68
2021/01/03 07:10:55;;;;;;;35.70;19.93;;;;;;;1.50;73.92;95871.44;5055862;28;20460;-67
2021/01/03 07:13:25;;;;;;;35.90;20.13;;;;;;;1.42;73.25;95876.41;5071938;28;20939;-66
2021/01/03 07:15:52;;;;;;;32.40;18.33;;;;;;;1.61;72.98;95879.13;5073780;28;20198;-68
2021/01/03 07:18:23;;;;;;;33.33;19.83;;;;;;;1.33;73.62;95873.66;5072449;28;20517;-67
2021/01/03 07:20:58;;;;;;;33.27;19.37;;;;;;;1.46;73.24;95880.38;5061533;28;20420;-67
2021/01/03 07:23:27;;;;;;;31.70;18.30;;;;;;;1.75;72.50;95877.13;5043645;28;20437;-66
2021/01/03 07:26:17;;;;;;;28.77;17.30;;;;;;;1.84;72.18;95884.09;5070955;28;20456;-67
2021/01/03 07:28:49;;;;;;;29.57;17.57;;;;;;;1.89;71.14;95879.34;5073227;28;20516;-67
2021/01/03 07:31:33;;;;;;;26.37;17.00;;;;;;;1.21;73.65;95885.00;5055668;28;20429;-68
2021/01/03 07:34:11;;;;;;;28.30;16.80;;;;;;;1.40;73.38;95875.72;5073407;28;20435;-68
2021/01/03 07:36:45;;;;;;;25.57;15.70;;;;;;;1.30;73.90;95886.00;5073659;28;20460;-67
2021/01/03 07:39:27;;;;;;;28.77;17.10;;;;;;;1.55;72.75;95889.13;5055968;28;20834;-69
2021/01/03 07:42:13;;;;;;;27.23;16.27;;;;;;;1.48;72.73;95891.41;5071141;28;20693;-68
2021/01/03 07:44:38;;;;;;;22.80;15.50;;;;;;;1.58;71.63;95892.28;5073544;28;20461;-67
2021/01/03 07:47:04;;;;;;;24.33;15.07;;;;;;;1.58;72.08;95894.88;5069936;28;20503;-68
2021/01/03 07:49:47;;;;;;;26.50;16.17;;;;;;;1.53;71.98;95897.81;5068163;28;20207;-66
2021/01/03 07:52:16;;;;;;;27.50;16.67;;;;;;;1.64;71.94;95899.50;5065327;28;20417;-66
2021/01/03 07:54:53;;;;;;;26.03;17.03;;;;;;;1.84;71.98;95902.19;5073246;28;20440;-67
2021/01/03 07:57:21;;;;;;;26.23;16.50;;;;;;;1.44;72.66;95901.19;5070530;28;20546;-68
2021/01/03 07:59:48;;;;;;;27.80;17.40;;;;;;;2.06;71.52;95908.09;5070488;28;20462;-68
2021/01/03 08:02:15;;;;;;;28.77;17.87;;;;;;;1.98;71.62;95901.84;5072625;28;20421;-66
2021/01/03 08:04:41;;;;;;;30.97;17.87;;;;;;;1.75;72.14;95905.56;5072002;28;20452;-70
2021/01/03 08:07:11;;;;;;;27.50;16.53;;;;;;;1.26;73.16;95898.34;5073226;28;20421;-67
2021/01/03 08:09:37;;;;;;;30.30;17.20;;;;;;;1.54;73.02;95898.63;5068276;28;20213;-67
2021/01/03 08:12:26;;;;;;;28.03;18.00;;;;;;;1.50;73.26;95898.06;5072978;28;20432;-67
2021/01/03 08:15:22;;;;;;;25.60;16.17;;;;;;;1.45;72.71;95896.81;5072469;28;20297;-68
2021/01/03 08:17:47;;;;;;;28.10;16.43;;;;;;;1.86;72.05;95902.03;5058002;28;20520;-67
2021/01/03 08:20:23;;;;;;;27.77;17.53;;;;;;;1.72;72.13;95903.22;5062712;28;20816;-67
2021/01/03 08:22:49;;;;;;;26.53;16.57;;;;;;;1.66;72.24;95905.34;5070848;28;20196;-68
2021/01/03 08:25:24;;;;;;;24.70;16.60;;;;;;;1.65;71.60;95908.88;5072745;28;20796;-67
2021/01/03 08:28:09;;;;;;;27.93;16.10;;;;;;;1.45;72.62;95907.16;5072610;28;20697;-68
2021/01/03 08:30:36;;;;;;;30.00;16.17;;;;;;;1.54;72.28;95914.13;5070943;28;20488;-67
2021/01/03 08:33:18;;;;;;;24.33;15.87;;;;;;;1.47;72.71;95906.06;5071037;28;20546;-66
2021/01/03 08:35:43;;;;;;;29.27;16.50;;;;;;;1.84;71.53;95909.94;5069861;28;20456;-68
2021/01/03 08:38:10;;;;;;;28.40;16.77;;;;;;;1.50;72.43;95915.34;5054774;28;20467;-66
2021/01/03 08:40:42;;;;;;;29.17;16.67;;;;;;;1.77;71.11;95913.97;5071658;28;20612;-66
2021/01/03 08:43:15;;;;;;;30.13;16.30;;;;;;;1.66;71.57;95920.06;5072243;28;20441;-66
2021/01/03 08:45:43;;;;;;;27.63;16.83;;;;;;;1.55;72.67;95926.09;5071060;28;20975;-70
2021/01/03 08:48:13;;;;;;;28.93;17.07;;;;;;;1.80;71.75;95924.88;5071532;28;20501;-67
2021/01/03 08:50:41;;;;;;;26.90;18.03;;;;;;;1.96;71.34;95926.97;5062676;28;20540;-68
2021/01/03 08:53:08;;;;;;;27.07;16.60;;;;;;;2.11;70.92;95935.19;5069959;28;20451;-66
2021/01/03 08:55:39;;;;;;;26.73;16.43;;;;;;;2.01;70.48;95926.59;5056163;28;20431;-67
2021/01/03 08:58:10;;;;;;;24.87;14.90;;;;;;;1.94;71.25;95934.03;5058031;28;20424;-66
2021/01/03 09:00:40;;;;;;;25.60;16.17;;;;;;;1.75;71.68;95944.31;5054994;28;20485;-67
2021/01/03 09:03:13;;;;;;;25.97;15.03;;;;;;;1.63;72.40;95943.53;5054304;28;20525;-66
2021/01/03 09:05:39;;;;;;;30.50;17.00;;;;;;;1.68;71.53;95944.78;5070699;28;20432;-68
2021/01/03 09:08:06;;;;;;;24.70;15.50;;;;;;;2.26;70.25;95948.59;5067420;28;20435;-67
2021/01/03 09:10:35;;;;;;;24.97;15.03;;;;;;;2.54;69.26;95953.16;5071713;28;20487;-67
2021/01/03 09:13:07;;;;;;;22.37;14.40;;;;;;;2.58;68.63;95950.16;5070514;28;20511;-66
2021/01/03 09:15:35;;;;;;;22.93;14.27;;;;;;;2.62;68.19;95945.53;5072278;28;20427;-67
2021/01/03 09:18:10;;;;;;;21.80;14.03;;;;;;;2.79;67.86;95951.00;5061593;28;20433;-68
2021/01/03 09:20:41;;;;;;;24.27;15.10;;;;;;;2.38;68.71;95951.88;5060985;28;20521;-67
2021/01/03 09:23:10;;;;;;;22.77;14.67;;;;;;;2.64;68.83;95950.59;5075163;28;20444;-65
2021/01/03 09:25:37;;;;;;;23.53;14.47;;;;;;;2.67;68.28;95961.50;5070980;28;20432;-68
2021/01/03 09:28:23;;;;;;;21.20;13.73;;;;;;;2.57;68.66;95964.03;5070871;28;20424;-67
2021/01/03 09:30:49;;;;;;;19.80;12.90;;;;;;;2.86;67.29;95954.69;5071139;28;20812;-66
2021/01/03 09:33:22;;;;;;;22.20;15.23;;;;;;;2.63;67.79;95965.28;5069898;28;20436;-68
2021/01/03 09:35:58;;;;;;;18.63;12.83;;;;;;;2.66;67.17;95961.59;5072236;28;20190;-67
2021/01/03 09:38:39;;;;;;;23.40;13.90;;;;;;;2.95;66.92;95960.84;5071204;28;20420;-67
2021/01/03 09:41:23;;;;;;;24.37;14.20;;;;;;;2.38;67.59;95966.59;5066005;28;20447;-67
2021/01/03 09:44:26;;;;;;;20.50;13.33;;;;;;;2.60;67.55;95966.38;5072832;28;20460;-69
2021/01/03 09:47:07;;;;;;;22.10;13.70;;;;;;;2.80;67.19;95958.63;5055661;28;20425;-67
2021/01/03 09:49:35;;;;;;;22.57;14.17;;;;;;;2.99;66.35;95954.44;5066933;28;20598;-66
2021/01/03 09:52:19;;;;;;;23.17;14.83;;;;;;;2.43;68.12;95972.16;5073720;28;20427;-69
2021/01/03 09:54:55;;;;;;;22.87;14.70;;;;;;;2.57;67.82;95971.81;5061994;28;20445;-68
2021/01/03 09:57:36;;;;;;;21.50;12.77;;;;;;;2.64;67.55;95959.16;5078467;28;20480;-68
2021/01/03 10:00:09;;;;;;;18.50;12.97;;;;;;;2.81;67.17;95957.69;5078003;28;20443;-68
2021/01/03 10:02:36;;;;;;;18.90;12.53;;;;;;;3.18;66.12;95964.78;5076827;28;20523;-68
2021/01/03 10:05:04;;;;;;;21.37;14.07;;;;;;;2.85;66.69;95964.25;5075716;28;20459;-67
2021/01/03 10:07:31;;;;;;;21.87;13.53;;;;;;;3.21;65.65;95958.53;5069975;28;20428;-68
2021/01/03 10:09:59;;;;;;;22.63;14.07;;;;;;;3.58;64.95;95952.63;5074510;28;20456;-67
2021/01/03 10:12:35;;;;;;;23.27;14.17;;;;;;;3.45;64.14;95946.94;5077050;28;20420;-67
2021/01/03 10:15:04;;;;;;;20.27;12.83;;;;;;;2.99;65.89;95947.47;5076604;28;20500;-67
2021/01/03 10:17:30;;;;;;;18.60;12.87;;;;;;;3.20;64.91;95956.91;5071263;28;20414;-67
2021/01/03 10:19:56;;;;;;;19.37;12.93;;;;;;;3.56;64.75;95948.53;5071616;28;20643;-68
2021/01/03 10:22:27;;;;;;;22.07;13.97;;;;;;;3.38;63.53;95954.44;5076243;28;20504;-67
2021/01/03 10:25:01;;;;;;;23.37;14.00;;;;;;;3.46;64.33;95944.19;5077593;28;20215;-69
2021/01/03 10:27:27;;;;;;;19.37;12.83;;;;;;;3.45;63.28;95941.75;5072267;28;20413;-68
2021/01/03 10:29:53;;;;;;;19.03;13.07;;;;;;;3.32;63.76;95944.63;5063334;28;20468;-69
2021/01/03 10:32:19;;;;;;;19.47;13.00;;;;;;;3.47;64.41;95932.88;5076322;28;20512;-67
2021/01/03 10:34:45;;;;;;;21.10;13.10;;;;;;;3.27;64.07;95939.03;5077853;28;20275;-68
2021/01/03 10:37:11;;;;;;;19.30;13.50;;;;;;;2.98;64.71;95937.28;5077602;28;20550;-69
2021/01/03 10:39:36;;;;;;;20.80;13.03;;;;;;;2.94;65.03;95934.16;5077500;28;20190;-68
2021/01/03 10:42:05;;;;;;;19.97;13.67;;;;;;;3.22;64.65;95940.25;5074430;28;20211;-68
2021/01/03 10:44:30;;;;;;;23.10;14.47;;;;;;;3.68;63.64;95934.47;5076703;28;20213;-67
2021/01/03 10:46:56;;;;;;;18.00;13.10;;;;;;;3.55;63.83;95932.19;5077503;28;20919;-68
2021/01/03 10:49:23;;;;;;;19.90;12.87;;;;;;;3.09;64.72;95934.53;5063562;28;20210;-68
2021/01/03 10:51:49;;;;;;;24.90;13.43;;;;;;;3.38;64.37;95925.94;5070935;28;20511;-68
2021/01/03 10:54:28;;;;;;;25.40;15.60;;;;;;;2.99;64.84;95934.53;5077371;28;20825;-68
2021/01/03 10:56:55;;;;;;;19.90;13.33;;;;;;;3.26;64.89;95934.81;5081022;28;21010;-67
2021/01/03 10:59:21;;;;;;;22.40;12.90;;;;;;;3.56;63.92;95927.81;5077270;28;20421;-69
2021/01/03 11:01:47;;;;;;;22.83;14.90;;;;;;;3.64;62.93;95933.13;5075922;28;20433;-67
2021/01/03 11:04:16;;;;;;;20.30;13.07;;;;;;;3.17;65.09;95939.03;5074064;28;20441;-67
2021/01/03 11:06:48;;;;;;;24.27;14.33;;;;;;;3.37;64.71;95921.72;5073198;28;20190;-68
2021/01/03 11:09:17;;;;;;;19.80;14.23;;;;;;;3.54;64.28;95928.75;5070157;28;20509;-71
2021/01/03 11:11:43;;;;;;;22.03;14.03;;;;;;;3.64;63.52;95926.16;5073880;28;20467;-68
2021/01/03 11:14:09;;;;;;;18.17;12.80;;;;;;;3.74;63.50;95928.72;5056273;28;20475;-68
2021/01/03 11:16:38;;;;;;;22.77;12.80;;;;;;;3.83;63.36;95922.69;5072721;28;20428;-66
2021/01/03 11:19:05;;;;;;;19.63;12.97;;;;;;;3.76;62.90;95921.63;5072588;28;20432;-67
2021/01/03 11:21:31;;;;;;;22.70;13.97;;;;;;;3.94;62.68;95921.72;5064450;28;20795;-67
2021/01/03 11:23:57;;;;;;;21.07;13.67;;;;;;;3.58;63.48;95924.13;5073164;28;20440;-68
2021/01/03 11:26:42;;;;;;;22.93;13.73;;;;;;;3.03;65.70;95924.72;5073349;28;20184;-67
2021/01/03 11:29:21;;;;;;;23.60;14.07;;;;;;;3.10;64.97;95925.00;5071168;28;20174;-67
2021/01/03 11:31:49;;;;;;;27.47;14.23;;;;;;;3.28;64.73;95919.94;5073774;28;20420;-68
2021/01/03 11:34:19;;;;;;;19.23;13.10;;;;;;;3.63;63.56;95915.94;5073360;28;20974;-68
2021/01/03 11:36:53;;;;;;;19.60;13.70;;;;;;;3.56;63.27;95920.03;5073503;28;20446;-68
2021/01/03 11:39:19;;;;;;;22.10;13.70;;;;;;;3.45;64.04;95918.44;5074005;28;20439;-68
2021/01/03 11:41:48;;;;;;;22.07;14.60;;;;;;;3.29;64.87;95909.47;5071711;28;20425;-68
2021/01/03 11:44:14;;;;;;;22.20;14.27;;;;;;;3.52;64.30;95919.50;5072998;28;20444;-68
2021/01/03 11:46:41;;;;;;;24.93;15.53;;;;;;;3.60;63.79;95916.22;5069461;28;20815;-69